Time;durP1;ratioP1;P1;durP2;ratioP2;P2;SDS_P1;SDS_P2;PMS_P1;PMS_P2;Temp;Humidity;BMP_temperature;BMP_pressure;BME280_temperature;BME280_humidity;BME280_pressure;Samples;Min_cycle;Max_cycle;Signal;HPM_P1;HPM_P2
2022/11/28 00:01:19;;;;;;;;;;;7.90;96.10;;;;;;5062560;28;19916;-74
2022/11/28 00:03:44;;;;;;;;;;;7.80;96.10;;;;;;5067431;28;19912;-74
2022/11/28 00:06:10;;;;;;;;;;;7.80;96.10;;;;;;5065732;28;19924;-74
2022/11/28 00:08:35;;;;;;;;;;;7.90;96.10;;;;;;5058170;28;19919;-74
2022/11/28 00:11:04;;;;;;;;;;;7.90;96.10;;;;;;5046661;28;19923;-74
2022/11/28 00:13:30;;;;;;;;;;;7.80;96.10;;;;;;5066650;28;19912;-74
2022/11/28 00:15:59;;;;;;;;;;;7.80;96.10;;;;;;5086598;28;19966;-74
2022/11/28 00:18:25;;;;;;;;;;;7.80;96.20;;;;;;5084730;28;19916;-74
2022/11/28 00:20:51;;;;;;;;;;;7.80;96.20;;;;;;5086761;28;19912;-74
2022/11/28 00:23:16;;;;;;;;;;;7.80;96.20;;;;;;5083817;28;19912;-74
2022/11/28 00:25:42;;;;;;;;;;;7.80;96.20;;;;;;5078908;28;19908;-74
2022/11/28 00:28:08;;;;;;;;;;;7.80;96.20;;;;;;5085806;28;19934;-74
2022/11/28 00:30:36;;;;;;;;;;;7.80;96.30;;;;;;5076038;28;19926;-74
2022/11/28 00:33:02;;;;;;;;;;;7.80;96.30;;;;;;5066588;28;19966;-74
2022/11/28 00:35:27;;;;;;;;;;;7.80;96.30;;;;;;5066300;28;19917;-74
2022/11/28 00:37:53;;;;;;;;;;;7.80;96.30;;;;;;5066611;28;20341;-74
2022/11/28 00:40:18;;;;;;;;;;;7.80;96.30;;;;;;5066851;28;20042;-74
2022/11/28 00:42:44;;;;;;;;;;;7.80;96.30;;;;;;5065847;28;19912;-74
2022/11/28 00:45:09;;;;;;;;;;;7.80;96.30;;;;;;5067720;28;19955;-75
2022/11/28 00:47:35;;;;;;;;;;;7.80;96.40;;;;;;5067105;28;19912;-74
2022/11/28 00:50:00;;;;;;;;;;;7.80;96.40;;;;;;5066572;28;19913;-75
2022/11/28 00:52:26;;;;;;;;;;;7.80;96.40;;;;;;5068044;28;19938;-75
2022/11/28 00:54:51;;;;;;;;;;;7.80;96.40;;;;;;5075400;28;19958;-74
2022/11/28 00:57:17;;;;;;;;;;;7.80;96.40;;;;;;5090688;28;19908;-74
2022/11/28 00:59:42;;;;;;;;;;;7.80;96.40;;;;;;5071154;28;19916;-74
2022/11/28 01:02:08;;;;;;;;;;;7.80;96.40;;;;;;5074570;28;19916;-74
2022/11/28 01:04:33;;;;;;;;;;;7.80;96.40;;;;;;5089699;28;19911;-74
2022/11/28 01:06:59;;;;;;;;;;;7.80;96.50;;;;;;5090167;28;19994;-74
2022/11/28 01:09:24;;;;;;;;;;;7.80;96.40;;;;;;5070084;28;19920;-74
2022/11/28 01:11:50;;;;;;;;;;;7.80;96.50;;;;;;5069718;28;19928;-73
2022/11/28 01:14:20;;;;;;;;;;;7.80;96.80;;;;;;5070371;28;19955;-74
2022/11/28 01:16:46;;;;;;;;;;;7.80;96.50;;;;;;5070734;28;19913;-73
2022/11/28 01:19:12;;;;;;;;;;;7.70;96.50;;;;;;5071935;28;20415;-74
2022/11/28 01:21:38;;;;;;;;;;;7.80;96.50;;;;;;5068795;28;20385;-74
2022/11/28 01:24:04;;;;;;;;;;;7.80;96.50;;;;;;5070178;28;19920;-74
2022/11/28 01:26:29;;;;;;;;;;;7.80;96.50;;;;;;5087511;28;20377;-73
2022/11/28 01:28:55;;;;;;;;;;;7.70;96.50;;;;;;5090058;28;19977;-74
2022/11/28 01:31:22;;;;;;;;;;;7.70;96.50;;;;;;5073022;28;19928;-74
2022/11/28 01:33:48;;;;;;;;;;;7.80;96.80;;;;;;5070069;28;19912;-74
2022/11/28 01:36:17;;;;;;;;;;;7.80;96.60;;;;;;5085315;28;19927;-74
2022/11/28 01:38:43;;;;;;;;;;;7.80;96.60;;;;;;5079617;28;20252;-74
2022/11/28 01:41:08;;;;;;;;;;;7.80;96.60;;;;;;5069655;28;19966;-73
2022/11/28 01:43:34;;;;;;;;;;;7.80;96.60;;;;;;5069496;28;20337;-74
2022/11/28 01:45:59;;;;;;;;;;;7.80;96.60;;;;;;5069573;28;19912;-74
2022/11/28 01:48:27;;;;;;;;;;;7.80;96.60;;;;;;5068328;28;20351;-74
2022/11/28 01:50:55;;;;;;;;;;;7.70;96.60;;;;;;5070044;28;19974;-74
2022/11/28 01:53:21;;;;;;;;;;;7.80;96.60;;;;;;5055654;28;19917;-74
2022/11/28 01:55:58;;;;;;;;;;;7.80;96.60;;;;;;5081663;28;19915;-74
2022/11/28 01:58:24;;;;;;;;;;;7.80;96.70;;;;;;5089770;28;19923;-74
2022/11/28 02:00:50;;;;;;;;;;;7.80;96.70;;;;;;5076465;28;20024;-74
2022/11/28 02:03:23;;;;;;;;;;;7.70;96.70;;;;;;5068058;28;20510;-74
2022/11/28 02:05:50;;;;;;;;;;;7.80;96.70;;;;;;5069728;28;19912;-74
2022/11/28 02:08:16;;;;;;;;;;;7.70;96.70;;;;;;5068345;28;19955;-73
2022/11/28 02:11:00;;;;;;;;;;;7.70;96.70;;;;;;5069003;28;19963;-74
2022/11/28 02:13:34;;;;;;;;;;;7.70;96.70;;;;;;5067617;28;19923;-74
2022/11/28 02:16:18;;;;;;;;;;;7.70;96.70;;;;;;5068746;28;20042;-74
2022/11/28 02:18:59;;;;;;;;;;;7.70;96.70;;;;;;5068854;28;20288;-74
2022/11/28 02:21:44;;;;;;;;;;;7.70;97.00;;;;;;5068932;28;19909;-74
2022/11/28 02:24:15;;;;;;;;;;;7.70;96.70;;;;;;5068734;28;19912;-74
2022/11/28 02:26:47;;;;;;;;;;;7.70;96.80;;;;;;5088811;28;19916;-74
2022/11/28 02:29:34;;;;;;;;;;;7.70;96.70;;;;;;5089289;28;19930;-74
2022/11/28 02:32:18;;;;;;;;;;;7.70;96.70;;;;;;5052013;28;19917;-74
2022/11/28 02:34:43;;;;;;;;;;;7.70;96.80;;;;;;5068479;28;20319;-74
2022/11/28 02:37:38;;;;;;;;;;;7.70;96.80;;;;;;5069281;28;19919;-74
2022/11/28 02:40:06;;;;;;;;;;;7.70;96.80;;;;;;5081054;28;19923;-73
2022/11/28 02:42:38;;;;;;;;;;;7.70;96.80;;;;;;5065131;28;19915;-74
2022/11/28 02:45:09;;;;;;;;;;;7.70;96.80;;;;;;5068516;28;19916;-74
2022/11/28 02:47:41;;;;;;;;;;;7.70;96.80;;;;;;5067357;28;20373;-74
2022/11/28 02:50:36;;;;;;;;;;;7.70;96.80;;;;;;5068623;28;19912;-74
2022/11/28 02:53:04;;;;;;;;;;;7.70;96.80;;;;;;5067279;28;19912;-74
2022/11/28 02:55:29;;;;;;;;;;;7.70;96.80;;;;;;5077711;28;19912;-74
2022/11/28 02:57:55;;;;;;;;;;;7.70;96.80;;;;;;5084300;28;19916;-74
2022/11/28 03:00:21;;;;;;;;;;;7.70;96.80;;;;;;5066831;28;19963;-74
2022/11/28 03:02:50;;;;;;;;;;;7.70;96.80;;;;;;5068595;28;19962;-74
2022/11/28 03:05:28;;;;;;;;;;;7.70;97.00;;;;;;5068928;28;19913;-74
2022/11/28 03:07:53;;;;;;;;;;;7.70;96.70;;;;;;5068111;28;19916;-74
2022/11/28 03:10:21;;;;;;;;;;;7.70;96.80;;;;;;5064232;28;20339;-75
2022/11/28 03:12:50;;;;;;;;;;;7.70;96.80;;;;;;5063624;28;19917;-74
2022/11/28 03:15:18;;;;;;;;;;;7.70;96.70;;;;;;5066282;28;19928;-74
2022/11/28 03:18:02;;;;;;;;;;;7.70;96.80;;;;;;5068206;28;20486;-74
2022/11/28 03:20:39;;;;;;;;;;;7.70;96.80;;;;;;5067854;28;19908;-74
2022/11/28 03:23:14;;;;;;;;;;;7.70;96.80;;;;;;5068302;28;20031;-75
2022/11/28 03:25:54;;;;;;;;;;;7.70;96.80;;;;;;5078768;28;19916;-75
2022/11/28 03:28:30;;;;;;;;;;;7.70;96.80;;;;;;5087783;28;20576;-75
2022/11/28 03:31:01;;;;;;;;;;;7.70;96.80;;;;;;5073722;28;19947;-74
2022/11/28 03:33:29;;;;;;;;;;;7.70;96.80;;;;;;5068154;28;19912;-75
2022/11/28 03:36:21;;;;;;;;;;;7.70;96.80;;;;;;5068486;28;19944;-75
2022/11/28 03:38:48;;;;;;;;;;;7.70;96.80;;;;;;5066232;28;19916;-75
2022/11/28 03:41:17;;;;;;;;;;;7.70;96.80;;;;;;5067211;28;20018;-75
2022/11/28 03:43:45;;;;;;;;;;;7.70;96.80;;;;;;5065794;28;19921;-75
2022/11/28 03:46:12;;;;;;;;;;;7.70;96.80;;;;;;5067339;28;19998;-75
2022/11/28 03:48:39;;;;;;;;;;;7.70;96.80;;;;;;5063599;28;19912;-75
2022/11/28 03:51:13;;;;;;;;;;;7.70;96.80;;;;;;5065202;28;20504;-74
2022/11/28 03:53:41;;;;;;;;;;;7.70;96.80;;;;;;5065997;28;19920;-74
2022/11/28 03:56:13;;;;;;;;;;;7.70;96.80;;;;;;5074329;28;19991;-74
2022/11/28 03:58:44;;;;;;;;;;;7.70;96.80;;;;;;5067730;28;19913;-75
2022/11/28 04:01:22;;;;;;;;;;;7.70;96.80;;;;;;5066696;28;20418;-74
2022/11/28 04:03:53;;;;;;;;;;;7.70;96.80;;;;;;5067287;28;19908;-74
2022/11/28 04:06:25;;;;;;;;;;;7.70;96.80;;;;;;5065950;28;20614;-75
2022/11/28 04:09:10;;;;;;;;;;;7.70;96.80;;;;;;5055500;28;20070;-74
2022/11/28 04:11:37;;;;;;;;;;;7.70;96.80;;;;;;5049580;28;19925;-74
2022/11/28 04:14:07;;;;;;;;;;;7.70;96.80;;;;;;5087358;28;20380;-74
2022/11/28 04:16:53;;;;;;;;;;;7.70;96.80;;;;;;5087415;28;19920;-74
2022/11/28 04:19:41;;;;;;;;;;;7.70;96.80;;;;;;5087096;28;19951;-74
2022/11/28 04:22:17;;;;;;;;;;;7.70;96.80;;;;;;5056284;28;19947;-74
2022/11/28 04:24:45;;;;;;;;;;;7.70;96.80;;;;;;5067678;28;20517;-74
2022/11/28 04:27:13;;;;;;;;;;;7.70;96.80;;;;;;5066539;28;19916;-74
2022/11/28 04:29:43;;;;;;;;;;;7.70;96.70;;;;;;5068184;28;19913;-74
2022/11/28 04:32:11;;;;;;;;;;;7.70;96.80;;;;;;5071313;28;19925;-75
2022/11/28 04:34:38;;;;;;;;;;;7.70;96.80;;;;;;5062351;28;20464;-74
2022/11/28 04:37:06;;;;;;;;;;;7.70;96.80;;;;;;5045797;28;19921;-74
2022/11/28 04:39:33;;;;;;;;;;;7.60;96.80;;;;;;5069116;28;19970;-75
2022/11/28 04:42:05;;;;;;;;;;;7.70;96.80;;;;;;5066621;28;19938;-74
2022/11/28 04:44:48;;;;;;;;;;;7.60;97.00;;;;;;5067006;28;19920;-75
2022/11/28 04:47:14;;;;;;;;;;;7.60;96.80;;;;;;5067749;28;19913;-74
2022/11/28 04:49:40;;;;;;;;;;;7.70;96.80;;;;;;5065641;28;19998;-74
2022/11/28 04:52:05;;;;;;;;;;;7.70;96.80;;;;;;5066686;28;19955;-74
2022/11/28 04:54:34;;;;;;;;;;;7.70;96.80;;;;;;5067968;28;19912;-74
2022/11/28 04:57:03;;;;;;;;;;;7.70;96.80;;;;;;5087670;28;19956;-74
2022/11/28 04:59:30;;;;;;;;;;;7.70;96.80;;;;;;5086411;28;19908;-75
2022/11/28 05:01:57;;;;;;;;;;;7.60;96.70;;;;;;5066663;28;19908;-74
2022/11/28 05:04:23;;;;;;;;;;;7.70;96.80;;;;;;5080813;28;19940;-74
2022/11/28 05:06:48;;;;;;;;;;;7.60;96.70;;;;;;5066604;28;19967;-74
2022/11/28 05:09:14;;;;;;;;;;;7.70;96.80;;;;;;5051853;28;20397;-74
2022/11/28 05:11:40;;;;;;;;;;;7.70;96.70;;;;;;5046097;28;19927;-74
2022/11/28 05:14:05;;;;;;;;;;;7.70;96.80;;;;;;5046336;28;20492;-74
2022/11/28 05:16:31;;;;;;;;;;;7.70;96.80;;;;;;5046329;28;20709;-74
2022/11/28 05:18:56;;;;;;;;;;;7.70;96.70;;;;;;5051358;28;19951;-75
2022/11/28 05:21:22;;;;;;;;;;;7.70;96.70;;;;;;5066406;28;19954;-74
2022/11/28 05:23:49;;;;;;;;;;;7.70;96.70;;;;;;5065768;28;20440;-74
2022/11/28 05:26:16;;;;;;;;;;;7.70;96.70;;;;;;5081139;28;20002;-74
2022/11/28 05:28:43;;;;;;;;;;;7.70;96.70;;;;;;5085385;28;20268;-74
2022/11/28 05:31:09;;;;;;;;;;;7.60;96.70;;;;;;5071213;28;19917;-74
2022/11/28 05:33:34;;;;;;;;;;;7.70;96.70;;;;;;5066423;28;19918;-74
2022/11/28 05:36:04;;;;;;;;;;;7.70;96.70;;;;;;5065054;28;19916;-74
2022/11/28 05:38:30;;;;;;;;;;;7.60;96.70;;;;;;5059745;28;20327;-74
2022/11/28 05:40:56;;;;;;;;;;;7.60;96.70;;;;;;5049760;28;19943;-74
2022/11/28 05:43:21;;;;;;;;;;;7.70;96.70;;;;;;5090085;28;20282;-74
2022/11/28 05:45:47;;;;;;;;;;;7.70;96.70;;;;;;5069790;28;19920;-74
2022/11/28 05:48:12;;;;;;;;;;;7.70;96.70;;;;;;5069970;28;19915;-74
2022/11/28 05:50:38;;;;;;;;;;;7.70;96.70;;;;;;5069480;28;19909;-74
2022/11/28 05:53:04;;;;;;;;;;;7.70;96.70;;;;;;5072602;28;19916;-74
2022/11/28 05:55:29;;;;;;;;;;;7.70;96.70;;;;;;5068668;28;19908;-74
2022/11/28 05:57:55;;;;;;;;;;;7.70;96.70;;;;;;5089946;28;19920;-74
2022/11/28 06:00:21;;;;;;;;;;;7.70;96.70;;;;;;5081013;28;19948;-74
2022/11/28 06:02:46;;;;;;;;;;;7.60;96.70;;;;;;5081285;28;19912;-74
2022/11/28 06:05:12;;;;;;;;;;;7.60;96.60;;;;;;5089534;28;19908;-75
2022/11/28 06:07:37;;;;;;;;;;;7.60;96.70;;;;;;5088612;28;19916;-74
2022/11/28 06:10:03;;;;;;;;;;;7.60;96.70;;;;;;5082448;28;20593;-74
2022/11/28 06:12:28;;;;;;;;;;;7.60;96.60;;;;;;5089768;28;19926;-74
2022/11/28 06:14:54;;;;;;;;;;;7.60;96.70;;;;;;5089872;28;19938;-74
2022/11/28 06:17:19;;;;;;;;;;;7.60;96.70;;;;;;5089559;28;19912;-74
2022/11/28 06:19:45;;;;;;;;;;;7.60;96.70;;;;;;5089502;28;19958;-74
2022/11/28 06:22:10;;;;;;;;;;;7.60;96.70;;;;;;5089207;28;19920;-74
2022/11/28 06:24:36;;;;;;;;;;;7.60;96.70;;;;;;5076474;28;19912;-74
2022/11/28 06:27:01;;;;;;;;;;;7.60;96.70;;;;;;5088849;28;19912;-74
2022/11/28 06:29:27;;;;;;;;;;;7.60;96.70;;;;;;5089052;28;19908;-74
2022/11/28 06:31:52;;;;;;;;;;;7.60;96.70;;;;;;5069696;28;19921;-74
2022/11/28 06:34:18;;;;;;;;;;;7.60;96.70;;;;;;5069014;28;20425;-74
2022/11/28 06:36:44;;;;;;;;;;;7.60;96.70;;;;;;5069010;28;20025;-74
2022/11/28 06:39:14;;;;;;;;;;;7.60;96.70;;;;;;5054969;28;20519;-74
2022/11/28 06:41:39;;;;;;;;;;;7.60;96.70;;;;;;5057118;28;19946;-74
2022/11/28 06:44:05;;;;;;;;;;;7.60;96.70;;;;;;5069485;28;19915;-74
2022/11/28 06:46:30;;;;;;;;;;;7.60;96.70;;;;;;5068291;28;19954;-74
2022/11/28 06:48:56;;;;;;;;;;;7.60;96.70;;;;;;5068091;28;19912;-74
2022/11/28 06:51:21;;;;;;;;;;;7.60;96.70;;;;;;5068037;28;19965;-74
2022/11/28 06:53:47;;;;;;;;;;;7.60;96.70;;;;;;5068599;28;19939;-73
2022/11/28 06:56:14;;;;;;;;;;;7.60;96.70;;;;;;5084097;28;19918;-74
2022/11/28 06:58:40;;;;;;;;;;;7.60;96.70;;;;;;5082818;28;19916;-74
2022/11/28 07:01:07;;;;;;;;;;;7.60;96.70;;;;;;5078336;28;19916;-74
2022/11/28 07:03:32;;;;;;;;;;;7.60;96.70;;;;;;5087547;28;20331;-74
2022/11/28 07:06:01;;;;;;;;;;;7.60;96.70;;;;;;5089185;28;19995;-74
2022/11/28 07:08:27;;;;;;;;;;;7.60;96.70;;;;;;5079180;28;20449;-74
2022/11/28 07:10:52;;;;;;;;;;;7.60;96.70;;;;;;5068461;28;20011;-74
2022/11/28 07:13:18;;;;;;;;;;;7.60;96.70;;;;;;5068944;28;19955;-74
2022/11/28 07:15:50;;;;;;;;;;;7.60;96.70;;;;;;5070048;28;19916;-73
2022/11/28 07:18:16;;;;;;;;;;;7.50;96.70;;;;;;5069004;28;20055;-74
2022/11/28 07:20:41;;;;;;;;;;;7.60;96.70;;;;;;5067727;28;19956;-74
2022/11/28 07:23:07;;;;;;;;;;;7.60;96.70;;;;;;5068015;28;19923;-74
2022/11/28 07:25:32;;;;;;;;;;;7.60;96.70;;;;;;5077766;28;20292;-74
2022/11/28 07:28:00;;;;;;;;;;;7.60;96.70;;;;;;5088306;28;19958;-74
2022/11/28 07:30:26;;;;;;;;;;;7.60;96.70;;;;;;5078773;28;19919;-74
2022/11/28 07:32:51;;;;;;;;;;;7.60;96.70;;;;;;5077194;28;19908;-74
2022/11/28 07:35:17;;;;;;;;;;;7.60;96.70;;;;;;5088719;28;19913;-74
2022/11/28 07:37:43;;;;;;;;;;;7.60;96.70;;;;;;5086416;28;19923;-74
2022/11/28 07:40:08;;;;;;;;;;;7.50;96.90;;;;;;5068433;28;19916;-74
2022/11/28 07:42:34;;;;;;;;;;;7.60;96.70;;;;;;5068497;28;19912;-74
2022/11/28 07:44:59;;;;;;;;;;;7.60;96.70;;;;;;5067912;28;19909;-74
2022/11/28 07:47:25;;;;;;;;;;;7.60;96.70;;;;;;5066645;28;19944;-74
2022/11/28 07:49:51;;;;;;;;;;;7.60;96.70;;;;;;5068416;28;19919;-74
2022/11/28 07:52:16;;;;;;;;;;;7.60;96.60;;;;;;5067267;28;20381;-74
2022/11/28 07:54:42;;;;;;;;;;;7.60;96.60;;;;;;5070215;28;19912;-74
2022/11/28 07:57:07;;;;;;;;;;;7.60;96.60;;;;;;5087811;28;19915;-74
2022/11/28 07:59:33;;;;;;;;;;;7.60;96.60;;;;;;5084655;28;19916;-74
2022/11/28 08:01:58;;;;;;;;;;;7.60;96.60;;;;;;5067492;28;19976;-74
2022/11/28 08:04:23;;;;;;;;;;;7.60;96.60;;;;;;5067920;28;19912;-74
2022/11/28 08:06:49;;;;;;;;;;;7.60;96.60;;;;;;5067234;28;19917;-75
2022/11/28 08:09:14;;;;;;;;;;;7.60;96.60;;;;;;5052795;28;19912;-74
2022/11/28 08:11:40;;;;;;;;;;;7.60;96.60;;;;;;5047259;28;19963;-75
2022/11/28 08:14:06;;;;;;;;;;;7.60;96.60;;;;;;5047514;28;20057;-74
2022/11/28 08:16:31;;;;;;;;;;;7.60;96.60;;;;;;5047233;28;19999;-74
2022/11/28 08:18:59;;;;;;;;;;;7.60;96.60;;;;;;5047124;28;19913;-74
2022/11/28 08:21:27;;;;;;;;;;;7.60;96.50;;;;;;5086152;28;20003;-74
2022/11/28 08:23:53;;;;;;;;;;;7.60;96.50;;;;;;5077077;28;20429;-74
2022/11/28 08:26:23;;;;;;;;;;;7.60;96.50;;;;;;5070485;28;19928;-74
2022/11/28 08:28:49;;;;;;;;;;;7.70;96.50;;;;;;5067250;28;19944;-74
2022/11/28 08:31:16;;;;;;;;;;;7.70;96.50;;;;;;5066928;28;20002;-74
2022/11/28 08:33:42;;;;;;;;;;;7.70;96.50;;;;;;5067349;28;19915;-74
2022/11/28 08:36:08;;;;;;;;;;;7.70;96.80;;;;;;5071937;28;19916;-74
2022/11/28 08:38:34;;;;;;;;;;;7.70;96.50;;;;;;5075824;28;19940;-74
2022/11/28 08:41:07;;;;;;;;;;;7.70;96.50;;;;;;5066771;28;19994;-74
2022/11/28 08:43:33;;;;;;;;;;;7.70;96.50;;;;;;5099486;28;19920;-75
2022/11/28 08:45:58;;;;;;;;;;;7.70;96.50;;;;;;5066964;28;19912;-74
2022/11/28 08:48:24;;;;;;;;;;;7.70;96.50;;;;;;5066899;28;20372;-74
2022/11/28 08:50:50;;;;;;;;;;;7.70;96.50;;;;;;5065298;28;19923;-75
2022/11/28 08:53:15;;;;;;;;;;;7.80;96.50;;;;;;5068063;28;19916;-75
2022/11/28 08:55:43;;;;;;;;;;;7.80;96.50;;;;;;5078090;28;19958;-74
2022/11/28 08:58:08;;;;;;;;;;;7.70;96.50;;;;;;5087194;28;19961;-74
2022/11/28 09:00:34;;;;;;;;;;;7.80;96.50;;;;;;5075224;28;19916;-74
2022/11/28 09:02:59;;;;;;;;;;;7.80;96.50;;;;;;5066950;28;19912;-74
2022/11/28 09:05:26;;;;;;;;;;;7.80;96.50;;;;;;5067178;28;19919;-75
2022/11/28 09:07:53;;;;;;;;;;;7.80;96.50;;;;;;5067491;28;19908;-74
2022/11/28 09:10:18;;;;;;;;;;;7.80;96.50;;;;;;5079817;28;19975;-74
2022/11/28 09:12:44;;;;;;;;;;;7.80;96.50;;;;;;5087884;28;19920;-74
2022/11/28 09:15:09;;;;;;;;;;;7.80;96.50;;;;;;5091101;28;20405;-75
2022/11/28 09:17:35;;;;;;;;;;;7.80;96.80;;;;;;5090973;28;19908;-74
2022/11/28 09:20:00;;;;;;;;;;;7.80;96.50;;;;;;5090491;28;19947;-74
2022/11/28 09:22:27;;;;;;;;;;;7.80;96.50;;;;;;5090775;28;19938;-74
2022/11/28 09:24:52;;;;;;;;;;;7.80;96.50;;;;;;5065305;28;19908;-74
2022/11/28 09:27:18;;;;;;;;;;;7.80;96.50;;;;;;5072697;28;19947;-74
2022/11/28 09:29:43;;;;;;;;;;;7.80;96.50;;;;;;5070581;28;20015;-74
2022/11/28 09:32:09;;;;;;;;;;;7.90;96.50;;;;;;5070352;28;20452;-74
2022/11/28 09:34:34;;;;;;;;;;;7.90;96.50;;;;;;5070208;28;20001;-74
2022/11/28 09:37:00;;;;;;;;;;;7.90;96.50;;;;;;5070313;28;19994;-74
2022/11/28 09:39:25;;;;;;;;;;;7.90;96.40;;;;;;5053977;28;19970;-74
2022/11/28 09:42:03;;;;;;;;;;;7.90;96.50;;;;;;5082276;28;20400;-74
2022/11/28 09:44:54;;;;;;;;;;;7.90;96.50;;;;;;5070457;28;19912;-74
2022/11/28 09:47:21;;;;;;;;;;;7.90;96.50;;;;;;5070751;28;20585;-74
2022/11/28 09:49:51;;;;;;;;;;;7.90;96.40;;;;;;5063856;28;20415;-74
2022/11/28 09:52:22;;;;;;;;;;;7.90;96.50;;;;;;5069544;28;20006;-74
2022/11/28 09:54:58;;;;;;;;;;;7.90;96.40;;;;;;5072335;28;20003;-74
2022/11/28 09:57:42;;;;;;;;;;;8.00;96.50;;;;;;5089354;28;19923;-75
2022/11/28 10:00:20;;;;;;;;;;;8.00;96.50;;;;;;5083394;28;19908;-74
2022/11/28 10:03:15;;;;;;;;;;;8.00;96.40;;;;;;5069554;28;19913;-75
2022/11/28 10:05:43;;;;;;;;;;;8.00;96.40;;;;;;5072824;28;20440;-74
2022/11/28 10:08:11;;;;;;;;;;;8.00;96.40;;;;;;5064009;28;19912;-74
2022/11/28 10:10:43;;;;;;;;;;;8.00;96.40;;;;;;5049731;28;19955;-74
2022/11/28 10:13:15;;;;;;;;;;;8.00;96.40;;;;;;5089621;28;19915;-75
2022/11/28 10:15:48;;;;;;;;;;;8.00;96.40;;;;;;5089947;28;19954;-74
2022/11/28 10:18:48;;;;;;;;;;;8.10;96.40;;;;;;5089711;28;19991;-74
2022/11/28 10:21:14;;;;;;;;;;;8.10;96.40;;;;;;5066056;28;19971;-74
2022/11/28 10:23:42;;;;;;;;;;;8.10;96.40;;;;;;5068721;28;20009;-74
2022/11/28 10:26:25;;;;;;;;;;;8.10;96.40;;;;;;5077372;28;19924;-74
2022/11/28 10:28:53;;;;;;;;;;;8.10;96.40;;;;;;5089207;28;19912;-74
2022/11/28 10:31:26;;;;;;;;;;;8.10;96.40;;;;;;5072732;28;19941;-74
2022/11/28 10:33:56;;;;;;;;;;;8.10;96.40;;;;;;5069026;28;19912;-74
2022/11/28 10:36:25;;;;;;;;;;;8.10;96.40;;;;;;5069187;28;19912;-74
2022/11/28 10:38:50;;;;;;;;;;;8.10;96.40;;;;;;5057775;28;19910;-74
2022/11/28 10:41:19;;;;;;;;;;;8.20;96.40;;;;;;5085528;28;19968;-74
2022/11/28 10:43:54;;;;;;;;;;;8.10;96.40;;;;;;5077633;28;20296;-75
2022/11/28 10:46:22;;;;;;;;;;;8.20;96.40;;;;;;5069078;28;19912;-75
2022/11/28 10:48:54;;;;;;;;;;;8.20;96.50;;;;;;5069055;28;19909;-74
2022/11/28 10:51:23;;;;;;;;;;;8.20;96.50;;;;;;5068312;28;20585;-74
2022/11/28 10:53:51;;;;;;;;;;;8.20;96.40;;;;;;5068186;28;19938;-75
2022/11/28 10:56:16;;;;;;;;;;;8.20;96.40;;;;;;5084604;28;19908;-74
2022/11/28 10:58:45;;;;;;;;;;;8.30;96.50;;;;;;5089013;28;20246;-74
2022/11/28 11:01:11;;;;;;;;;;;8.30;96.40;;;;;;5072579;28;19947;-74
2022/11/28 11:03:37;;;;;;;;;;;8.30;96.40;;;;;;5067979;28;19912;-74
2022/11/28 11:06:03;;;;;;;;;;;8.30;96.40;;;;;;5067434;28;19912;-74
2022/11/28 11:08:32;;;;;;;;;;;8.30;96.40;;;;;;5067805;28;19978;-75
2022/11/28 11:11:16;;;;;;;;;;;8.30;96.40;;;;;;5067853;28;20409;-74
2022/11/28 11:14:02;;;;;;;;;;;8.30;96.40;;;;;;5066931;28;19908;-75
2022/11/28 11:16:48;;;;;;;;;;;8.30;96.40;;;;;;5066846;28;19920;-75
2022/11/28 11:19:21;;;;;;;;;;;8.30;96.40;;;;;;5066513;28;20619;-75
2022/11/28 11:21:57;;;;;;;;;;;8.40;96.40;;;;;;5069732;28;20001;-75
2022/11/28 11:24:22;;;;;;;;;;;8.30;96.40;;;;;;5062582;28;19909;-75
2022/11/28 11:26:48;;;;;;;;;;;8.40;96.40;;;;;;5088059;28;19912;-75
2022/11/28 11:29:19;;;;;;;;;;;8.40;96.40;;;;;;5087893;28;20018;-74
2022/11/28 11:31:48;;;;;;;;;;;8.40;96.50;;;;;;5066960;28;19916;-74
2022/11/28 11:34:18;;;;;;;;;;;8.40;96.40;;;;;;5068107;28;20011;-74
2022/11/28 11:36:43;;;;;;;;;;;8.40;96.50;;;;;;5066618;28;20011;-74
2022/11/28 11:39:09;;;;;;;;;;;8.40;96.50;;;;;;5054324;28;20016;-75
2022/11/28 11:41:35;;;;;;;;;;;8.40;96.50;;;;;;5047578;28;19917;-74
2022/11/28 11:44:13;;;;;;;;;;;8.40;96.50;;;;;;5060398;28;19916;-74
2022/11/28 11:46:55;;;;;;;;;;;8.40;96.50;;;;;;5066869;28;19991;-74
2022/11/28 11:49:37;;;;;;;;;;;8.40;96.50;;;;;;5067439;28;20717;-74
2022/11/28 11:52:11;;;;;;;;;;;8.50;96.50;;;;;;5085929;28;20014;-74
2022/11/28 11:54:57;;;;;;;;;;;8.50;96.60;;;;;;5062338;28;19990;-74
2022/11/28 11:57:24;;;;;;;;;;;8.40;96.50;;;;;;5083958;28;19919;-75
2022/11/28 11:59:54;;;;;;;;;;;8.50;96.50;;;;;;5083425;28;19912;-74
2022/11/28 12:02:29;;;;;;;;;;;8.50;96.60;;;;;;5067653;28;19913;-74
2022/11/28 12:05:01;;;;;;;;;;;8.50;96.60;;;;;;5067753;28;20262;-74
2022/11/28 12:07:33;;;;;;;;;;;8.50;96.60;;;;;;5067731;28;19936;-74
2022/11/28 12:09:58;;;;;;;;;;;8.50;96.60;;;;;;5047313;28;20019;-75
2022/11/28 12:12:28;;;;;;;;;;;8.50;96.60;;;;;;5047396;28;20011;-74
2022/11/28 12:14:53;;;;;;;;;;;8.50;96.70;;;;;;5046026;28;19913;-74
2022/11/28 12:17:19;;;;;;;;;;;8.50;96.70;;;;;;5047377;28;20661;-75
2022/11/28 12:19:56;;;;;;;;;;;8.50;96.70;;;;;;5060174;28;19916;-74
2022/11/28 12:22:30;;;;;;;;;;;8.50;96.70;;;;;;5067435;28;19912;-74
2022/11/28 12:24:59;;;;;;;;;;;8.50;96.70;;;;;;5072063;28;20544;-74
2022/11/28 12:27:30;;;;;;;;;;;8.50;96.70;;;;;;5087389;28;19912;-74
2022/11/28 12:30:10;;;;;;;;;;;8.50;96.70;;;;;;5082308;28;19953;-74
2022/11/28 12:32:45;;;;;;;;;;;8.50;96.70;;;;;;5067539;28;20567;-74
2022/11/28 12:35:21;;;;;;;;;;;8.50;96.80;;;;;;5067104;28;20028;-74
2022/11/28 12:38:05;;;;;;;;;;;8.50;96.70;;;;;;5064764;28;19913;-74
2022/11/28 12:40:43;;;;;;;;;;;8.50;96.80;;;;;;5046712;28;19916;-74
2022/11/28 12:43:29;;;;;;;;;;;8.50;96.80;;;;;;5060111;28;19913;-74
2022/11/28 12:46:01;;;;;;;;;;;8.50;96.80;;;;;;5067083;28;20356;-74
2022/11/28 12:48:37;;;;;;;;;;;8.50;96.80;;;;;;5083183;28;20361;-74
2022/11/28 12:51:15;;;;;;;;;;;8.50;96.80;;;;;;5086942;28;19912;-74
2022/11/28 12:53:56;;;;;;;;;;;8.50;96.80;;;;;;5073419;28;20019;-75
2022/11/28 12:56:37;;;;;;;;;;;8.50;96.80;;;;;;5080380;28;19912;-74
2022/11/28 12:59:21;;;;;;;;;;;8.50;96.90;;;;;;5087122;28;20481;-74
2022/11/28 13:01:59;;;;;;;;;;;8.50;96.90;;;;;;5056240;28;19924;-74
2022/11/28 13:04:25;;;;;;;;;;;8.50;96.90;;;;;;5066996;28;20303;-74
2022/11/28 13:07:02;;;;;;;;;;;8.50;96.90;;;;;;5066948;28;20003;-74
2022/11/28 13:09:28;;;;;;;;;;;8.50;96.90;;;;;;5050215;28;19913;-74
2022/11/28 13:12:05;;;;;;;;;;;8.50;96.90;;;;;;5078706;28;19978;-74
2022/11/28 13:14:37;;;;;;;;;;;8.50;96.90;;;;;;5046742;28;20640;-74
2022/11/28 13:17:12;;;;;;;;;;;8.50;96.90;;;;;;5066979;28;19919;-74
2022/11/28 13:19:50;;;;;;;;;;;8.50;96.90;;;;;;5066382;28;20375;-74
2022/11/28 13:22:34;;;;;;;;;;;8.60;96.90;;;;;;5046554;28;19948;-74
2022/11/28 13:25:08;;;;;;;;;;;8.50;96.90;;;;;;5069336;28;19931;-74
2022/11/28 13:27:51;;;;;;;;;;;8.60;96.90;;;;;;5086385;28;19916;-74
2022/11/28 13:30:27;;;;;;;;;;;8.50;96.90;;;;;;5078154;28;19919;-74
2022/11/28 13:33:01;;;;;;;;;;;8.50;96.90;;;;;;5066047;28;20088;-74
2022/11/28 13:35:28;;;;;;;;;;;8.60;96.90;;;;;;5066512;28;19909;-73
2022/11/28 13:38:05;;;;;;;;;;;8.50;96.90;;;;;;5063148;28;19912;-74
2022/11/28 13:40:34;;;;;;;;;;;8.50;96.90;;;;;;5046333;28;20003;-73
2022/11/28 13:42:59;;;;;;;;;;;8.60;97.00;;;;;;5051125;28;20388;-74
2022/11/28 13:45:33;;;;;;;;;;;8.50;97.00;;;;;;5086364;28;19957;-73
2022/11/28 13:47:59;;;;;;;;;;;8.60;97.00;;;;;;5086687;28;20357;-74
2022/11/28 13:50:32;;;;;;;;;;;8.60;97.00;;;;;;5085868;28;20629;-74
2022/11/28 13:52:57;;;;;;;;;;;8.50;97.00;;;;;;5084569;28;20562;-74
2022/11/28 13:55:38;;;;;;;;;;;8.50;97.00;;;;;;5063134;28;19919;-74
2022/11/28 13:58:22;;;;;;;;;;;8.50;97.00;;;;;;5085582;28;20002;-74
2022/11/28 14:01:08;;;;;;;;;;;8.60;97.10;;;;;;5064806;28;19909;-74
2022/11/28 14:03:49;;;;;;;;;;;8.60;97.10;;;;;;5068135;28;20007;-74
2022/11/28 14:06:28;;;;;;;;;;;8.50;97.00;;;;;;5069811;28;19960;-74
2022/11/28 14:09:13;;;;;;;;;;;8.60;97.10;;;;;;5065199;28;19913;-74
2022/11/28 14:11:57;;;;;;;;;;;8.50;97.10;;;;;;5067479;28;19926;-74
2022/11/28 14:14:41;;;;;;;;;;;8.60;97.10;;;;;;5068902;28;19969;-74
2022/11/28 14:17:07;;;;;;;;;;;8.50;97.10;;;;;;5068417;28;19916;-74
2022/11/28 14:19:32;;;;;;;;;;;8.50;97.10;;;;;;5068726;28;19916;-74
2022/11/28 14:22:04;;;;;;;;;;;8.50;97.10;;;;;;5068502;28;19913;-74
2022/11/28 14:24:48;;;;;;;;;;;8.50;97.20;;;;;;5065260;28;19913;-74
2022/11/28 14:27:18;;;;;;;;;;;8.50;97.20;;;;;;5065768;28;19913;-74
2022/11/28 14:29:47;;;;;;;;;;;8.50;97.20;;;;;;5069082;28;19916;-74
2022/11/28 14:32:27;;;;;;;;;;;8.50;97.20;;;;;;5069343;28;19923;-74
2022/11/28 14:34:53;;;;;;;;;;;8.50;97.20;;;;;;5069311;28;20023;-74
2022/11/28 14:37:18;;;;;;;;;;;8.50;97.20;;;;;;5067754;28;20007;-73
2022/11/28 14:39:44;;;;;;;;;;;8.50;97.20;;;;;;5067673;28;19916;-74
2022/11/28 14:42:19;;;;;;;;;;;8.50;97.20;;;;;;5086382;28;19951;-74
2022/11/28 14:44:45;;;;;;;;;;;8.50;97.20;;;;;;5087296;28;20265;-74
2022/11/28 14:47:15;;;;;;;;;;;8.50;97.20;;;;;;5070243;28;19912;-74